Disclaimer

Please do not use the information listed here in-flight or in-navigation, as they are not provided to us by the airports but are provided by volunteers, so they might be outdated.

Search


Regions


Airport information page

Radio informations:
Tower (TWR) - 122.1 MHz
Ground (GND) - 241.875 MHz
Approach (APP) - 125.0 MHz

Airport informations:
Latitude: 54° 12' 19.88" N
Longitude: 001° 22' 55.54" W
Elevation: 92 feet - 28 meters
Operating hours: Remarks
Operating agency: Military
Timezone: UTC 0(+1DT) - Last Sunday in March to last Sunday in October
Fuel: Jet A1+, Jet A1 with icing inhibitor.

Runway information:
03/21 - 5951 x 150 feet< - >1814 x 46 meters
13/31 - 4140 x 150 feet< - >1262 x 46 meters

Recent METARs:
EGXZ 202150Z AUTO 03006KT 9999 RA BKN019/// BKN030/// 06/04 Q1011
EGXZ 202150Z AUTO 03006KT 9999 RA BKN019/// BKN030/// 06/04 Q1011
EGXZ 202250Z AUTO 02008KT 9999 BKN026/// BKN032/// 06/04 Q1010 RERA

Airport on the map: